Flight Track Log - Related Links

Times and Time Zones

All times are in EDT time to prevent confusion due to time zone crossing. See the AAY805 flight status page for this flight to view local times or setup timezone preferences in your user account.

Time Position Orientation Groundspeed Altitude Reporting Facility
EDT Latitude Longitude Course Direction KTS MPH feet Rate Location/Type
Thu 09:04:41 AM 35.0147 -85.0911 158° South 294 338 7,600  Level Atlanta Center
Thu 09:05:41 AM 34.9358 -85.0572 161° South 294 338 9,900 1,550 Climbing Atlanta Center
Thu 09:06:41 AM 34.8547 -85.0183 159° South 299 344 10,700 1,882 Climbing Atlanta Center
Thu 09:08:00 AM 34.4373 -84.8603 158° South  Level FlightAware Approximate
Thu 09:09:00 AM 34.3345 -84.8089 158° South  Level FlightAware Approximate
Thu 09:12:29 AM 34.2580 -84.7303 158° South 414 476 22,700  Level FlightAware ADS-B (KDZJ)
Thu 09:13:09 AM 34.1847 -84.6957 158° South 417 480 23,900 1,500 Climbing FlightAware ADS-B (KDZJ)
Thu 09:13:49 AM 34.1115 -84.6611 159° South 432 497 24,700 1,407 Climbing FlightAware ADS-B (KDZJ)
Thu 09:14:30 AM 34.0355 -84.6252 159° South 433 498 25,800 1,360 Climbing FlightAware ADS-B (KDZJ)
Thu 09:16:41 AM 33.7933 -84.5139 148° Southeast 432 497 28,600 1,131 Climbing Atlanta Center
Thu 09:17:41 AM 33.6725 -84.4581 159° South 445 512 29,400 800 Climbing Atlanta Center
Thu 09:18:41 AM 33.5619 -84.3853 151° Southeast 452 520 30,200 900 Climbing Atlanta Center
Thu 09:19:41 AM 33.4642 -84.2978 143° Southeast 471 542 31,200 1,000 Climbing Atlanta Center
Thu 09:20:41 AM 33.3536 -84.2081 146° Southeast 481 554 32,200 1,350 Climbing Atlanta Center
Thu 09:21:41 AM 33.2389 -84.1083 144° Southeast 486 559 33,900 1,450 Climbing Atlanta Center
Thu 09:22:00 AM 33.3293 -84.1719 148° Southeast  Level FlightAware Approximate
Thu 09:22:41 AM 33.1347 -84.0164 144° Southeast 475 547 35,100  Level Atlanta Center
Thu 09:23:41 AM 33.0303 -83.9297 145° Southeast 470 541 36,000 450 Climbing Atlanta Center
Thu 09:24:41 AM 32.9258 -83.8408 144° Southeast 465 535 36,000  Level Atlanta Center
Thu 09:25:41 AM 32.8233 -83.7594 146° Southeast 465 535 36,000  Level Atlanta Center
Thu 09:26:41 AM 32.7167 -83.6686 144° Southeast 465 535 36,000  Level Atlanta Center
Thu 09:27:41 AM 32.6181 -83.5753 141° Southeast 465 535 36,000  Level Atlanta Center
Thu 09:28:41 AM 32.5197 -83.4772 140° Southeast 465 535 36,000  Level Atlanta Center
Thu 09:29:41 AM 32.4231 -83.3819 140° Southeast 459 528 36,000  Level Atlanta Center
Thu 09:30:41 AM 32.3267 -83.2842 139° Southeast 454 522 36,000  Level Atlanta Center
Thu 09:31:41 AM 32.2278 -83.1869 140° Southeast 454 522 36,000  Level Atlanta Center
Thu 09:32:41 AM 32.1333 -83.0897 139° Southeast 454 522 36,000  Level Atlanta Center
Thu 09:36:15 AM 31.7906 -82.7581 141° Southeast 447 514 36,000  Level Jacksonville Center
Thu 09:37:15 AM 31.6842 -82.6825 149° Southeast 447 514 36,000  Level Jacksonville Center
Thu 09:38:15 AM 31.5589 -82.6633 173° South 438 504 36,000  Level Jacksonville Center
Thu 09:39:15 AM 31.4356 -82.6467 173° South 443 510 36,000  Level Jacksonville Center
Thu 09:40:15 AM 31.3081 -82.6275 173° South 450 518 36,000  Level Jacksonville Center
Thu 09:41:15 AM 31.1869 -82.6108 173° South 456 525 36,000 -150 Level Jacksonville Center
Thu 09:47:36 AM 30.4021 -82.4836 173° South 443 510 34,900 -435 Descending FlightAware ADS-B
Thu 09:49:32 AM 30.1593 -82.4460 172° South 461 531 32,400 -1,283 Descending FlightAware ADS-B
Thu 09:50:15 AM 30.0685 -82.4320 172° South 465 535 31,500 -1,282 Descending FlightAware ADS-B
Thu 09:51:15 AM 29.9393 -82.4121 173° South 465 535 30,200 -1,129 Descending FlightAware ADS-B
Thu 09:51:56 AM 29.8936 -82.4050 173° South 453 521 29,600 -950 Descending FlightAware ADS-B
Thu 09:52:56 AM 29.7293 -82.3799 172° South 447 514 28,600 -1,143 Descending FlightAware ADS-B
Thu 09:54:02 AM 29.5943 -82.3593 173° South 439 505 27,200 -1,485 Descending FlightAware ADS-B
Thu 09:54:33 AM 29.5442 -82.3522 174° South 438 504 26,200 -2,157 Descending FlightAware ADS-B
Thu 09:55:31 AM 29.4168 -82.3377 174° South 420 483 24,000 -2,214 Descending FlightAware ADS-B
Thu 09:56:16 AM 29.3312 -82.3275 174° South 407 468 22,400 -1,971 Descending FlightAware ADS-B
Thu 09:58:55 AM 29.0462 -82.2935 174° South 373 429 17,300 -1,461 Descending FlightAware ADS-B
Thu 10:03:56 AM 28.5859 -82.2550 179° South 302 348 11,200 -1,217 Descending FlightAware ADS-B
Thu 10:04:55 AM 28.5000 -82.2500 179° South 300 345 10,000 -605 Descending Tampa TRACON
Thu 10:05:55 AM 28.4167 -82.2500 180° South 297 342 10,000  Level Tampa TRACON
Thu 10:06:55 AM 28.3833 -82.3333 246° West 292 336 10,000  Level Tampa TRACON
Thu 10:07:50 AM 28.3833 -82.4000 270° West 295 339 10,000 -212 Level Tampa TRACON
Thu 10:08:20 AM 28.3728 -82.4528 257° West 294 338 9,700 -978 Descending Miami Center
Thu 10:09:22 AM 28.3661 -82.5436 265° West 294 338 8,500 -1,200 Descending Miami Center
Thu 10:09:55 AM 28.3500 -82.6000 252° West 288 331 7,800 -1,113 Descending Tampa TRACON
Thu 10:11:26 AM 28.2958 -82.6983 238° Southwest 286 329 6,200 -1,134 Descending Miami Center
Thu 10:12:02 AM 28.2500 -82.7333 214° Southwest 276 318 5,400 -1,200 Descending Tampa TRACON
Thu 10:13:56 AM 28.1167 -82.7167 174° South 257 296 3,200 -1,138 Descending Tampa TRACON
Thu 10:14:56 AM 28.0500 -82.7167 180° South 217 250 2,100 -857 Descending Tampa TRACON
Thu 10:16:37 AM 27.9719 -82.7003 169° South 197 227 900 -663 Descending Miami Center
Thu 10:17:39 AM 27.9361 -82.6925 169° South 160 184 300 -581 Descending Miami Center
Thu 10:19:00 AM 27.9100 -82.6875 170° South  Level Estimated
Thu 10:26:00 AM 27.9100 -82.6875 North  Level Estimated
Thu 10:27:00 AM 27.9100 -82.6875 170° South  Level Estimated

Login

Don't have an account? Register now (free) for customized features, flight alerts, and more!